Latest Coastal Weather Observations for Point Perpendicular

IDN60701

Issued at 4:31 am EDT Sunday 26 March 2017 (issued every 10 minutes, with the page automatically refreshed every 10 minutes)

About coastal observations | Map of coastal stations | Coastal observations for NSW | Marine services | Other Formats
Station Details ID: 068151 Name: POINT PERPENDICULAR AWS Lat: -35.09 Lon: 150.80 Height: 85.0 m
Data from the previous 72 hours. | See also: Recent months at Point Perpendicular
Date/Time
EDT
Temp
°C
Wind Pressure Rain since
9am
mm
Weather Cloud Vis
km
Sea
Height
m
Swell
Dir  Spd
kts
Gust
kts
hPa Trend Height
m
Period
s
Dir
26/04:00am 18.8 W 1 3 1013.4 - 0.8 - - - - - - -
26/03:30am 18.7 W 1 3 1013.7 - 0.8 - - - - - - -
26/03:00am 18.2 NNW 5 6 1013.5 - 0.8 - - - - - - -
26/02:30am 18.1 NNW 5 6 1013.9 - 0.8 - - - - - - -
26/02:00am 18.5 NW 1 2 1014.0 - 0.8 - - - - - - -
26/01:30am 18.5 NNW 3 4 1014.0 - 0.8 - - - - - - -
26/01:00am 18.5 NW 4 5 1014.4 - 0.8 - - - - - - -
26/12:30am 18.7 NNW 5 6 1014.4 - 0.8 - - - - - - -
26/12:00am 18.9 NNW 5 6 1014.4 - 0.8 - - - - - - -
 
Date/Time
EDT
Temp
°C
Wind Pressure Rain since
9am
mm
Weather Cloud Vis
km
Sea
Height
m
Swell
Dir  Spd
kts
Gust
kts
hPa Trend Height
m
Period
s
Dir
25/11:30pm 19.2 N 5 6 1014.6 - 0.8 - - - - - - -
25/11:00pm 19.2 N 3 4 1014.9 - 0.8 - - - - - - -
25/10:30pm 19.2 N 4 5 1014.6 - 0.8 - - - - - - -
25/10:00pm 19.3 NNE 5 6 1014.4 - 0.8 - - - - - - -
25/09:30pm 19.4 N 4 5 1014.5 - 0.8 - - - - - - -
25/09:00pm 19.5 NNW 2 4 1014.4 - 0.8 - - - - - - -
25/08:30pm 19.7 N 7 9 1013.9 - 0.8 - - - - - - -
25/08:00pm 19.7 N 9 13 1013.6 - 0.8 - - - - - - -
25/07:30pm 19.5 N 9 13 1013.2 - 0.8 - - - - - - -
25/07:00pm 19.5 N 8 12 1013.3 - 0.8 - - - - - - -
25/06:30pm 19.5 N 10 14 1013.0 - 0.8 - - - - - - -
25/06:00pm 19.7 N 11 15 1012.9 - 0.8 - - - - - - -
25/05:30pm 19.8 N 9 13 1013.1 - 0.8 - - - - - - -
25/05:00pm 20.0 N 8 14 1013.0 - 0.8 - - - - - - -
25/04:30pm 19.4 NNW 6 9 1012.9 - 0.8 - - - - - - -
25/04:00pm 19.7 NNE 6 9 1013.6 - 0.4 - - - - - - -
25/03:30pm 20.2 NNE 11 16 1013.5 - 0.0 - - - - - - -
25/03:00pm 21.5 NNE 10 14 1013.8 - 0.0 - - - - - - -
25/02:30pm 22.3 NNE 9 13 1014.2 - 0.0 - - - - - - -
25/02:00pm 22.1 N 11 14 1014.4 - 0.0 - - - - - - -
25/01:30pm 22.8 N 13 18 1014.7 - 0.0 - - - - - - -
25/01:00pm 22.6 NNE 10 16 1015.2 - 0.0 - - - - - - -
25/12:30pm 22.3 N 11 17 1015.6 - 0.0 - - - - - - -
25/12:00pm 21.3 NNE 10 14 1016.1 - 0.0 - - - - - - -
25/11:30am 20.8 N 11 15 1016.6 - 0.0 - - - - - - -
25/11:00am 21.5 NNE 7 11 1016.8 - 0.0 - - - - - - -
25/10:30am 21.2 NNE 5 9 1017.4 - 0.0 - - - - - - -
25/10:00am 20.8 N 5 7 1017.3 - 0.0 - - - - - - -
25/09:30am 21.0 NNW 5 8 1017.4 - 0.0 - - - - - - -
25/09:00am 20.5 NNW 3 4 1017.3 - 3.8 - - - - - - -
25/08:30am 18.8 NW 2 3 1017.1 - 3.8 - - - - - - -
25/08:00am 18.7 NW 2 4 1017.0 - 3.8 - - - - - - -
25/07:30am 18.2 WNW 1 3 1017.0 - 3.8 - - - - - - -
25/07:00am 18.1 NW 3 4 1016.9 - 3.8 - - - - - - -
25/06:30am 18.1 NNW 3 3 1016.6 - 3.8 - - - - - - -
25/06:00am 18.1 NNW 2 3 1016.8 - 3.8 - - - - - - -
25/05:30am 18.4 NW 2 3 1017.3 - 3.8 - - - - - - -
25/05:00am 18.3 NW 2 2 1017.3 - 3.8 - - - - - - -
25/04:30am 18.3 NW 2 3 1017.2 - 3.8 - - - - - - -
25/04:00am 18.4 NW 2 4 1017.1 - 3.8 - - - - - - -
25/03:30am 18.5 W 1 2 1017.4 - 3.8 - - - - - - -
25/03:00am 18.5 NW 1 2 1017.7 - 3.8 - - - - - - -
25/02:30am 18.4 WNW 1 2 1017.5 - 3.8 - - - - - - -
25/02:00am 18.5 NW 1 3 1018.2 - 3.8 - - - - - - -
25/01:30am 18.6 NW 2 4 1018.4 - 3.8 - - - - - - -
25/01:00am 19.0 NNW 4 5 1018.7 - 3.8 - - - - - - -
25/12:30am 19.7 NW 2 4 1019.3 - 3.8 - - - - - - -
25/12:00am 20.0 ENE 5 8 1019.3 - 3.8 - - - - - - -
 
Date/Time
EDT
Temp
°C
Wind Pressure Rain since
9am
mm
Weather Cloud Vis
km
Sea
Height
m
Swell
Dir  Spd
kts
Gust
kts
hPa Trend Height
m
Period
s
Dir
24/11:30pm 20.1 E 3 6 1019.8 - 3.8 - - - - - - -
24/11:00pm 20.1 E 3 5 1019.9 - 3.8 - - - - - - -
24/10:30pm 20.1 E 4 7 1020.2 - 3.8 - - - - - - -
24/10:00pm 20.2 ESE 6 9 1020.3 - 3.8 - - - - - - -
24/09:30pm 20.3 ESE 5 7 1020.1 - 3.8 - - - - - - -
24/09:00pm 20.4 ESE 4 6 1020.1 - 3.8 - - - - - - -
24/08:30pm 20.3 ESE 5 8 1019.7 - 3.8 - - - - - - -
24/08:00pm 20.4 ESE 6 9 1019.4 - 3.8 - - - - - - -
24/07:30pm 20.3 ESE 6 9 1019.2 - 3.8 - - - - - - -
24/07:00pm 20.3 ESE 6 9 1019.2 - 3.8 - - - - - - -
24/06:30pm 20.4 ESE 6 10 1019.3 - 3.8 - - - - - - -
24/06:00pm 20.5 ESE 7 12 1019.1 - 3.8 - - - - - - -
24/05:30pm 20.5 SE 7 10 1019.0 - 3.8 - - - - - - -
24/05:00pm 20.6 SE 6 10 1019.1 - 3.8 - - - - - - -
24/04:30pm 20.6 SE 8 12 1018.9 - 3.8 - - - - - - -
24/04:00pm 20.6 SE 8 12 1019.1 - 3.8 - - - - - - -
24/03:30pm 20.8 SE 8 12 1019.2 - 3.8 - - - - - - -
24/03:00pm 20.9 SE 7 11 1019.5 - 3.8 - - - - - - -
24/02:30pm 21.2 SSE 6 9 1019.9 - 3.8 - - - - - - -
24/02:00pm 21.1 SE 6 10 1020.1 - 3.8 - - - - - - -
24/01:30pm 21.0 SE 7 11 1020.5 - 3.8 - - - - - - -
24/01:00pm 20.1 SSE 7 12 1020.6 - 3.8 - - - - - - -
24/12:30pm 19.8 SW 7 12 1020.6 - 3.8 - - - - - - -
24/12:00pm 18.7 WSW 5 10 1020.8 - 2.8 Rain - - - - - -
24/11:30am 19.8 SSE 5 9 1021.2 - 1.4 - - - - - - -
24/11:00am 18.5 SW 10 20 1021.2 - 1.2 - - - - - - -
24/10:30am 19.5 SW 8 12 1021.0 - 0.0 - - - - - - -
24/10:00am 19.3 SW 9 14 1020.7 - 0.0 - - - - - - -
24/09:30am 19.2 SW 10 14 1020.3 - 0.0 - - - - - - -
24/09:00am 18.9 SW 9 14 1020.3 - 40.2 - - - - - - -
24/08:30am 18.6 SW 8 13 1019.9 - 40.2 - - - - - - -
24/08:00am 18.7 SW 9 13 1019.7 - 40.2 - - - - - - -
24/07:30am 18.4 WSW 5 10 1019.8 - 40.2 - - - - - - -
24/07:00am 18.5 SW 5 10 1019.8 - 40.2 - - - - - - -
24/06:30am 18.7 SSW 7 10 1019.3 - 38.2 - - - - - - -
24/06:00am 20.2 SSW 10 15 1019.0 - 38.2 - - - - - - -
24/05:30am 20.7 S 11 17 1018.7 - 38.2 - - - - - - -
24/05:00am 20.5 S 9 13 1018.7 - 38.2 - - - - - - -
24/04:30am 20.3 SSE 10 14 1018.5 - 38.2 - - - - - - -
24/04:00am 20.4 S 9 17 1018.5 - 38.2 - - - - - - -
24/03:30am 20.2 SSE 9 14 1018.4 - 38.2 - - - - - - -
24/03:00am 20.2 SSE 9 14 1018.7 - 38.2 Recent precip. - - - - - -
24/02:30am 19.8 SSE 10 15 1018.7 - 38.2 - - - - - - -
24/02:00am 18.7 S 3 6 1019.2 - 38.0 - - - - - - -
24/01:30am 18.4 SSE 3 5 1019.3 - 38.0 - - - - - - -
24/01:00am 18.1 S 7 11 1019.5 - 36.8 - - - - - - -
24/12:30am 19.9 SSE 7 11 1019.2 - 35.4 - - - - - - -
24/12:00am 19.4 SSE 9 14 1019.0 - 35.4 Recent precip. - - - - - -
 
Date/Time
EDT
Temp
°C
Wind Pressure Rain since
9am
mm
Weather Cloud Vis
km
Sea
Height
m
Swell
Dir  Spd
kts
Gust
kts
hPa Trend Height
m
Period
s
Dir
23/11:30pm 19.4 SSE 6 12 1019.2 - 35.4 - - - - - - -
23/11:00pm 19.4 SSE 6 10 1019.3 - 33.2 - - - - - - -
23/10:30pm 19.2 SSE 5 9 1019.0 - 33.2 - - - - - - -
23/10:00pm 19.2 SSE 8 13 1019.3 - 33.0 - - - - - - -
23/09:30pm 18.9 SSE 10 16 1019.0 - 32.8 - - - - - - -
23/09:00pm 18.7 SSE 13 21 1018.7 - 32.4 Rain - - - - - -
23/08:30pm 18.5 SSE 13 19 1018.4 - 30.4 - - - - - - -
23/08:00pm 18.7 SW 11 18 1018.2 - 27.6 - - - - - - -
23/07:30pm 18.7 SSW 13 18 1017.3 - 24.0 - - - - - - -
23/07:00pm 19.0 SW 12 19 1017.2 - 17.8 - - - - - - -
23/06:30pm 19.0 SW 11 16 1017.3 - 17.4 - - - - - - -
23/06:00pm 19.2 SW 12 18 1017.4 - 16.6 Rain - - - - - -
23/05:30pm 19.4 SSW 12 18 1017.4 - 15.2 - - - - - - -
23/05:00pm 19.5 SSW 11 18 1017.0 - 15.2 - - - - - - -
23/04:30pm 19.4 SW 8 16 1017.4 - 15.2 - - - - - - -
23/04:00pm 18.9 SW 11 18 1017.3 - 15.2 - - - - - - -
23/03:30pm 18.8 SW 11 17 1017.7 - 15.2 - - - - - - -
23/03:00pm 18.7 S 8 14 1017.7 - 14.0 Rain - - - - - -
23/02:30pm 18.6 S 11 17 1017.5 - 12.4 - - - - - - -
23/02:00pm 18.8 SW 9 13 1018.2 - 7.0 - - - - - - -
23/01:30pm 19.1 SSW 13 20 1017.8 - 6.4 - - - - - - -
23/01:00pm 18.7 SSW 11 18 1018.8 - 5.4 - - - - - - -
23/12:30pm 18.8 SW 10 16 1018.9 - 3.4 - - - - - - -
23/12:00pm 18.7 SW 9 15 1019.0 - 2.2 Rain - - - - - -
23/11:30am 19.4 SW 11 17 1018.9 - 0.2 - - - - - - -
23/11:00am 19.1 SW 12 18 1019.1 - 0.2 - - - - - - -
23/10:30am 19.1 SW 14 19 1019.2 - 0.2 - - - - - - -
23/10:00am 19.1 SW 10 15 1019.1 - 0.2 - - - - - - -
23/09:30am 18.8 SW 12 18 1018.9 - 0.2 - - - - - - -
23/09:00am 19.1 SW 12 19 1018.6 - 5.0 - - - - - - -
23/08:30am 19.0 SW 11 17 1018.4 - 5.0 - - - - - - -
23/08:00am 18.9 SW 11 17 1018.1 - 5.0 - - - - - - -
23/07:30am 19.0 SW 13 20 1017.9 - 5.0 - - - - - - -
23/07:00am 19.0 SW 13 20 1017.4 - 5.0 - - - - - - -
23/06:30am 19.4 SW 11 17 1017.4 - 5.0 - - - - - - -
23/06:00am 19.1 SW 11 18 1017.3 - 4.8 - - - - - - -
23/05:30am 19.0 SW 11 16 1017.4 - 4.8 - - - - - - -
23/05:00am 18.8 SW 11 18 1016.8 - 4.8 - - - - - - -

Other Formats:

Comma delimited format used in spreadsheet applications
http://www.bom.gov.au/fwo/IDN60701/IDN60701.95940.axf

JavaScript Object Notation format (JSON) in row-major order
http://www.bom.gov.au/fwo/IDN60701/IDN60701.95940.json